R. Catalunya — EALC — position and weather

sailwx.info

Track history (hours):
 
Tides and Currents Weather Stations Pressure Air Temp Water Temp Dewpoint Dewpoint Depression Visibility Wind Speed Wind Dir Waves Ship Positions

R. Catalunya

Last reported at 2017-Jul-23 17:02 UTC. Time now 2017-Jul-23 20:44 UTC.
Position N 38°54' E 001°27'.

Length 26 m; draft 6.5 m.

Type: Tug. MMSI: 224149970.

Date/timePositionNaut miles runAvg speedWind from/ knotsBaromVisibWave heightAir tempDewpointWater temp
2017-Jul-23 17:02N 38°54' E 001°27'111.7
2017-Jul-23 16:59N 38°54' E 001°27'8 0.9
2017-Jul-23 08:09N 38°46' E 001°25'1 8.1
2017-Jul-23 07:59N 38°47' E 001°24'5 9.5
2017-Jul-23 07:30N 38°51' E 001°28'510.2
2017-Jul-23 07:00N 38°54' E 001°34'510.3
2017-Jul-23 06:29N 38°57' E 001°39'510.2
2017-Jul-23 06:00N 38°60' E 001°44'510.1
2017-Jul-23 05:30N 39°03' E 001°49'510.2
2017-Jul-23 05:00N 39°06' E 001°54'510.3
2017-Jul-23 04:30N 39°09' E 001°60'510.4
2017-Jul-23 04:00N 39°12' E 002°05'510.3
2017-Jul-23 03:30N 39°15' E 002°11'510.3
2017-Jul-23 03:00N 39°18' E 002°16'510.4
2017-Jul-23 02:30N 39°21' E 002°22'510.4
2017-Jul-23 02:00N 39°24' E 002°27'5 9.7
2017-Jul-23 01:30N 39°27' E 002°32'5 9.0
2017-Jul-23 01:00N 39°30' E 002°36'4 7.3
2017-Jul-23 00:30N 39°33' E 002°38'1 1.0
2017-Jul-22 23:59N 39°34' E 002°38'0 0.0
2017-Jul-22 23:29N 39°34' E 002°38'0 0.0
2017-Jul-22 22:59N 39°34' E 002°38'0 0.0
2017-Jul-22 22:29N 39°34' E 002°38'0 0.0
2017-Jul-22 21:59N 39°34' E 002°38'0 0.0
2017-Jul-22 21:29N 39°34' E 002°38'0 0.0
2017-Jul-22 20:59N 39°34' E 002°38'0 0.0
2017-Jul-22 20:29N 39°34' E 002°38'0 0.0
2017-Jul-22 19:59N 39°34' E 002°38'0 0.0
2017-Jul-22 19:29N 39°34' E 002°38'0 0.0
2017-Jul-22 18:59N 39°34' E 002°38'0 0.0
2017-Jul-22 18:31N 39°34' E 002°38'2 4.1
2017-Jul-22 18:00N 39°32' E 002°37'1 2.4
2017-Jul-22 17:29N 39°32' E 002°35'0 0.0
2017-Jul-22 16:59N 39°32' E 002°35'0 0.0
2017-Jul-22 16:29N 39°32' E 002°35'0 0.0
2017-Jul-22 15:59N 39°32' E 002°35'0 0.0
2017-Jul-22 15:29N 39°32' E 002°35'0 0.0
2017-Jul-22 14:59N 39°32' E 002°35'0 0.0
2017-Jul-22 13:59N 39°32' E 002°35'0 0.0
2017-Jul-22 13:29N 39°32' E 002°35'0 0.0
2017-Jul-22 12:59N 39°32' E 002°35'0 0.0
2017-Jul-22 12:26N 39°32' E 002°35'0 0.0
2017-Jul-22 11:59N 39°32' E 002°35'0 0.0
2017-Jul-22 11:29N 39°32' E 002°35'0 0.0
2017-Jul-22 10:59N 39°32' E 002°35'0 0.0
2017-Jul-22 10:29N 39°32' E 002°35'0 0.0
2017-Jul-22 09:59N 39°32' E 002°35'0 0.0
2017-Jul-22 09:29N 39°32' E 002°35'0 0.0
2017-Jul-22 08:59N 39°32' E 002°35'3 6.2
2017-Jul-22 08:30N 39°33' E 002°39'1 2.0
2017-Jul-22 07:59N 39°34' E 002°38'0 0.0
2017-Jul-22 07:29N 39°34' E 002°38'0 0.0
2017-Jul-22 06:59N 39°34' E 002°38'0 0.0
2017-Jul-22 06:29N 39°34' E 002°38'0 0.0
2017-Jul-22 05:59N 39°34' E 002°38'0 0.0
2017-Jul-22 05:29N 39°34' E 002°38'0 0.0
2017-Jul-22 04:59N 39°34' E 002°38'0 0.0
2017-Jul-22 04:29N 39°34' E 002°38'0 0.0
2017-Jul-22 03:59N 39°34' E 002°38'0 0.0
2017-Jul-22 03:29N 39°34' E 002°38'0 0.0
2017-Jul-22 02:59N 39°34' E 002°38'0 0.0
2017-Jul-22 02:29N 39°34' E 002°38'0 0.0
2017-Jul-22 01:56N 39°34' E 002°38'0 0.0
2017-Jul-22 01:29N 39°34' E 002°38'0 0.0
2017-Jul-22 00:59N 39°34' E 002°38'0 0.0
2017-Jul-22 00:29N 39°34' E 002°38'0 0.0
2017-Jul-21 23:59N 39°34' E 002°38'0 0.0
2017-Jul-21 23:29N 39°34' E 002°38'0 0.0
2017-Jul-21 22:59N 39°34' E 002°38'0 0.0
2017-Jul-21 22:29N 39°34' E 002°38'0 0.0
2017-Jul-21 21:59N 39°34' E 002°38'0 0.0
2017-Jul-21 21:29N 39°34' E 002°38'0 0.0
2017-Jul-21 20:59N 39°34' E 002°38'0 0.0
2017-Jul-21 20:29N 39°34' E 002°38'0 0.0
2017-Jul-21 19:59N 39°34' E 002°38'0 0.0
2017-Jul-21 19:29N 39°34' E 002°38'0 0.0
2017-Jul-21 19:01N 39°34' E 002°38'0 0.0
2017-Jul-21 18:30N 39°34' E 002°38'0 0.0
2017-Jul-21 18:01N 39°34' E 002°38'0 0.0
2017-Jul-21 17:30N 39°34' E 002°38'0 0.7
2017-Jul-21 17:01N 39°34' E 002°38'5 9.0
2017-Jul-21 16:30N 39°30' E 002°42'3 6.4
2017-Jul-21 15:59N 39°27' E 002°44'0 0.0
2017-Jul-21 15:26N 39°27' E 002°44'0 0.0
2017-Jul-21 14:59N 39°27' E 002°44'0 0.0
2017-Jul-21 14:29N 39°27' E 002°44'0 0.0
2017-Jul-21 13:59N 39°27' E 002°44'0 0.0
2017-Jul-21 13:29N 39°27' E 002°44'0 0.0
2017-Jul-21 12:59N 39°27' E 002°44'0 0.0
2017-Jul-21 12:29N 39°27' E 002°44'0 0.0
2017-Jul-21 12:00N 39°27' E 002°44'0 0.0
2017-Jul-21 11:30N 39°27' E 002°44'7 7.9
2017-Jul-21 10:38N 39°33' E 002°39'1 8.0
2017-Jul-21 10:30N 39°33' E 002°38'0 0.7
2017-Jul-21 09:59N 39°34' E 002°38'0 0.0
2017-Jul-21 09:29N 39°34' E 002°38'0 0.0
2017-Jul-21 08:56N 39°34' E 002°38'0 0.0
2017-Jul-21 08:29N 39°34' E 002°38'0 0.0
2017-Jul-21 07:59N 39°34' E 002°38'0 0.0
2017-Jul-21 07:29N 39°34' E 002°38'0 0.0
2017-Jul-21 06:59N 39°34' E 002°38'0 0.0
2017-Jul-21 06:29N 39°34' E 002°38'0 0.0
2017-Jul-21 05:59N 39°34' E 002°38'0 0.0
2017-Jul-21 05:29N 39°34' E 002°38'0 0.0
2017-Jul-21 04:59N 39°34' E 002°38'0 0.0
2017-Jul-21 04:29N 39°34' E 002°38'0 0.0
2017-Jul-21 03:59N 39°34' E 002°38'0 0.0
2017-Jul-21 03:29N 39°34' E 002°38'0 0.0
2017-Jul-21 02:59N 39°34' E 002°38'0 0.0
2017-Jul-21 02:29N 39°34' E 002°38'0 0.0
2017-Jul-21 01:59N 39°34' E 002°38'0 0.0
2017-Jul-21 01:29N 39°34' E 002°38'0 0.0
2017-Jul-21 00:56N 39°34' E 002°38'0 0.0
2017-Jul-21 00:29N 39°34' E 002°38'0 0.0
2017-Jul-20 23:59N 39°34' E 002°38'0 0.0
2017-Jul-20 23:29N 39°34' E 002°38'0 0.0
2017-Jul-20 22:59N 39°34' E 002°38'0 0.0
2017-Jul-20 22:29N 39°34' E 002°38'0 0.0
2017-Jul-20 21:59N 39°34' E 002°38'0 0.0
2017-Jul-20 21:29N 39°34' E 002°38'0 0.0
2017-Jul-20 20:59N 39°34' E 002°38'0 0.0
2017-Jul-20 20:26N 39°34' E 002°38'0 0.0
2017-Jul-20 19:59N 39°34' E 002°38'0 0.0
2017-Jul-20 19:29N 39°34' E 002°38'0 0.0
2017-Jul-20 18:59N 39°34' E 002°38'0 0.0
2017-Jul-20 18:29N 39°34' E 002°38'0 0.0
2017-Jul-20 17:59N 39°34' E 002°38'0 0.0
2017-Jul-20 17:29N 39°34' E 002°38'0 0.0
2017-Jul-20 16:59N 39°34' E 002°38'0 0.0
2017-Jul-20 16:29N 39°34' E 002°38'0 0.0
2017-Jul-20 15:59N 39°34' E 002°38'0 0.0
2017-Jul-20 15:29N 39°34' E 002°38'0 0.0
2017-Jul-20 14:59N 39°34' E 002°38'0 0.0
2017-Jul-20 13:59N 39°34' E 002°38'0 0.0
2017-Jul-20 13:29N 39°34' E 002°38'0 0.0
2017-Jul-20 12:59N 39°34' E 002°38'0 0.0
2017-Jul-20 12:29N 39°34' E 002°38'0 0.0
2017-Jul-20 11:59N 39°34' E 002°38'0 0.0
2017-Jul-20 11:29N 39°34' E 002°38'0 0.0
2017-Jul-20 10:59N 39°34' E 002°38'0 0.0
2017-Jul-20 10:29N 39°34' E 002°38'0 0.0
2017-Jul-20 09:59N 39°34' E 002°38'0 0.0
2017-Jul-20 09:29N 39°34' E 002°38'0 0.0
2017-Jul-20 08:59N 39°34' E 002°38'0 0.0
2017-Jul-20 08:29N 39°34' E 002°38'0 0.0
2017-Jul-20 07:59N 39°34' E 002°38'0 0.0
2017-Jul-20 07:29N 39°34' E 002°38'0 0.0
2017-Jul-20 06:59N 39°34' E 002°38'0 0.0
2017-Jul-20 06:29N 39°34' E 002°38'0 0.0
2017-Jul-20 05:56N 39°34' E 002°38'0 0.0
2017-Jul-20 05:29N 39°34' E 002°38'0 0.0
2017-Jul-20 04:59N 39°34' E 002°38'0 0.0
2017-Jul-20 04:29N 39°34' E 002°38'0 0.0
2017-Jul-20 03:56N 39°34' E 002°38'0 0.0
2017-Jul-20 03:29N 39°34' E 002°38'0 0.0
2017-Jul-20 02:56N 39°34' E 002°38'0 0.0
2017-Jul-20 02:29N 39°34' E 002°38'0 0.0
2017-Jul-20 01:56N 39°34' E 002°38'0 0.0
2017-Jul-20 01:29N 39°34' E 002°38'0 0.0
2017-Jul-20 00:59N 39°34' E 002°38'0 0.0
2017-Jul-20 00:29N 39°34' E 002°38'0 0.0
2017-Jul-19 23:59N 39°34' E 002°38'0 0.0
2017-Jul-19 23:29N 39°34' E 002°38'0 0.0
2017-Jul-19 22:59N 39°34' E 002°38'0 0.0
2017-Jul-19 22:29N 39°34' E 002°38'0 0.0
2017-Jul-19 21:59N 39°34' E 002°38'0 0.0
2017-Jul-19 21:29N 39°34' E 002°38'0 0.0
2017-Jul-19 20:59N 39°34' E 002°38'0 0.0
2017-Jul-19 20:29N 39°34' E 002°38'0 0.0
2017-Jul-19 19:59N 39°34' E 002°38'0 0.0
2017-Jul-19 19:29N 39°34' E 002°38'0 0.0
2017-Jul-19 19:00N 39°34' E 002°38'0 0.3
2017-Jul-19 18:30N 39°34' E 002°38'5 9.8
2017-Jul-19 18:00N 39°30' E 002°34'714.1
2017-Jul-19 17:30N 39°26' E 002°27'713.7
2017-Jul-19 17:00N 39°22' E 002°19'714.2
2017-Jul-19 16:30N 39°17' E 002°13'510.0
2017-Jul-19 16:00N 39°14' E 002°07'5 9.9
2017-Jul-19 15:30N 39°12' E 002°02'5 9.6
2017-Jul-19 15:00N 39°09' E 001°57'5 9.4
2017-Jul-19 14:30N 39°06' E 001°52'5 9.5
2017-Jul-19 14:00N 39°04' E 001°47'6 9.6
2017-Jul-19 13:20N 38°60' E 001°40'4 9.6
2017-Jul-19 12:56N 38°58' E 001°36'5 9.5
2017-Jul-19 12:24N 38°55' E 001°31'5 1.2
2017-Jul-19 08:27N 38°52' E 001°26'11 6.9
2017-Jul-19 06:51N 38°54' E 001°13'2 0.1
2017-Jul-18 18:10N 38°56' E 001°13'210.1
2017-Jul-18 17:56N 38°54' E 001°13'813.1
2017-Jul-18 17:18N 38°48' E 001°21'310.1
2017-Jul-18 16:59N 38°46' E 001°24'1 1.4
2017-Jul-18 16:04N 38°46' E 001°26'8 0.2
2017-Jul-16 18:38N 38°53' E 001°27'510.3
2017-Jul-16 18:08N 38°48' E 001°25'110.5
2017-Jul-16 18:00N 38°47' E 001°25'2 1.6
2017-Jul-16 16:56N 38°46' E 001°26'0 0.0
2017-Jul-16 15:42N 38°46' E 001°26'0 0.0
2017-Jul-16 15:18N 38°46' E 001°26'0 0.0
2017-Jul-16 13:00N 38°46' E 001°26'0 0.0
2017-Jul-16 12:18N 38°46' E 001°26'0 0.0
2017-Jul-16 11:42N 38°46' E 001°26'0 0.0
2017-Jul-16 11:30N 38°46' E 001°26'0 0.0
2017-Jul-16 09:05N 38°46' E 001°26'0 0.7
2017-Jul-16 08:59N 38°46' E 001°26'4 7.4
2017-Jul-16 08:30N 38°48' E 001°22'3 0.3
2017-Jul-15 19:36N 38°46' E 001°26'2 0.3
2017-Jul-15 11:39N 38°48' E 001°25'11 0.3
2017-Jul-13 18:04N 38°54' E 001°12'110.2
2017-Jul-13 18:00N 38°54' E 001°12'5 6.6
2017-Jul-13 17:18N 38°50' E 001°16'  
Track history (hours):
 
Tides and Currents Weather Stations Pressure Air Temp Water Temp Dewpoint Dewpoint Depression Visibility Wind Speed Wind Dir Waves Ship Positions

R. Catalunya

Last reported at 2017-Jul-23 17:02 UTC. Time now 2017-Jul-23 20:44 UTC.
Position N 38°54' E 001°27'.

Length 26 m; draft 6.5 m.

Type: Tug. MMSI: 224149970.

Date/timePositionNaut miles runAvg speedWind from/ knotsBaromVisibWave heightAir tempDewpointWater temp
2017-Jul-23 17:02N 38°54' E 001°27'111.7
2017-Jul-23 16:59N 38°54' E 001°27'8 0.9
2017-Jul-23 08:09N 38°46' E 001°25'1 8.1
2017-Jul-23 07:59N 38°47' E 001°24'5 9.5
2017-Jul-23 07:30N 38°51' E 001°28'510.2
2017-Jul-23 07:00N 38°54' E 001°34'510.3
2017-Jul-23 06:29N 38°57' E 001°39'510.2
2017-Jul-23 06:00N 38°60' E 001°44'510.1
2017-Jul-23 05:30N 39°03' E 001°49'510.2
2017-Jul-23 05:00N 39°06' E 001°54'510.3
2017-Jul-23 04:30N 39°09' E 001°60'510.4
2017-Jul-23 04:00N 39°12' E 002°05'510.3
2017-Jul-23 03:30N 39°15' E 002°11'510.3
2017-Jul-23 03:00N 39°18' E 002°16'510.4
2017-Jul-23 02:30N 39°21' E 002°22'510.4
2017-Jul-23 02:00N 39°24' E 002°27'5 9.7
2017-Jul-23 01:30N 39°27' E 002°32'5 9.0
2017-Jul-23 01:00N 39°30' E 002°36'4 7.3
2017-Jul-23 00:30N 39°33' E 002°38'1 1.0
2017-Jul-22 23:59N 39°34' E 002°38'0 0.0
2017-Jul-22 23:29N 39°34' E 002°38'0 0.0
2017-Jul-22 22:59N 39°34' E 002°38'0 0.0
2017-Jul-22 22:29N 39°34' E 002°38'0 0.0
2017-Jul-22 21:59N 39°34' E 002°38'0 0.0
2017-Jul-22 21:29N 39°34' E 002°38'0 0.0
2017-Jul-22 20:59N 39°34' E 002°38'0 0.0
2017-Jul-22 20:29N 39°34' E 002°38'0 0.0
2017-Jul-22 19:59N 39°34' E 002°38'0 0.0
2017-Jul-22 19:29N 39°34' E 002°38'0 0.0
2017-Jul-22 18:59N 39°34' E 002°38'0 0.0
2017-Jul-22 18:31N 39°34' E 002°38'2 4.1
2017-Jul-22 18:00N 39°32' E 002°37'1 2.4
2017-Jul-22 17:29N 39°32' E 002°35'0 0.0
2017-Jul-22 16:59N 39°32' E 002°35'0 0.0
2017-Jul-22 16:29N 39°32' E 002°35'0 0.0
2017-Jul-22 15:59N 39°32' E 002°35'0 0.0
2017-Jul-22 15:29N 39°32' E 002°35'0 0.0
2017-Jul-22 14:59N 39°32' E 002°35'0 0.0
2017-Jul-22 13:59N 39°32' E 002°35'0 0.0
2017-Jul-22 13:29N 39°32' E 002°35'0 0.0
2017-Jul-22 12:59N 39°32' E 002°35'0 0.0
2017-Jul-22 12:26N 39°32' E 002°35'0 0.0
2017-Jul-22 11:59N 39°32' E 002°35'0 0.0
2017-Jul-22 11:29N 39°32' E 002°35'0 0.0
2017-Jul-22 10:59N 39°32' E 002°35'0 0.0
2017-Jul-22 10:29N 39°32' E 002°35'0 0.0
2017-Jul-22 09:59N 39°32' E 002°35'0 0.0
2017-Jul-22 09:29N 39°32' E 002°35'0 0.0
2017-Jul-22 08:59N 39°32' E 002°35'3 6.2
2017-Jul-22 08:30N 39°33' E 002°39'1 2.0
2017-Jul-22 07:59N 39°34' E 002°38'0 0.0
2017-Jul-22 07:29N 39°34' E 002°38'0 0.0
2017-Jul-22 06:59N 39°34' E 002°38'0 0.0
2017-Jul-22 06:29N 39°34' E 002°38'0 0.0
2017-Jul-22 05:59N 39°34' E 002°38'0 0.0
2017-Jul-22 05:29N 39°34' E 002°38'0 0.0
2017-Jul-22 04:59N 39°34' E 002°38'0 0.0
2017-Jul-22 04:29N 39°34' E 002°38'0 0.0
2017-Jul-22 03:59N 39°34' E 002°38'0 0.0
2017-Jul-22 03:29N 39°34' E 002°38'0 0.0
2017-Jul-22 02:59N 39°34' E 002°38'0 0.0
2017-Jul-22 02:29N 39°34' E 002°38'0 0.0
2017-Jul-22 01:56N 39°34' E 002°38'0 0.0
2017-Jul-22 01:29N 39°34' E 002°38'0 0.0
2017-Jul-22 00:59N 39°34' E 002°38'0 0.0
2017-Jul-22 00:29N 39°34' E 002°38'0 0.0
2017-Jul-21 23:59N 39°34' E 002°38'0 0.0
2017-Jul-21 23:29N 39°34' E 002°38'0 0.0
2017-Jul-21 22:59N 39°34' E 002°38'0 0.0
2017-Jul-21 22:29N 39°34' E 002°38'0 0.0
2017-Jul-21 21:59N 39°34' E 002°38'0 0.0
2017-Jul-21 21:29N 39°34' E 002°38'0 0.0
2017-Jul-21 20:59N 39°34' E 002°38'0 0.0
2017-Jul-21 20:29N 39°34' E 002°38'0 0.0
2017-Jul-21 19:59N 39°34' E 002°38'0 0.0
2017-Jul-21 19:29N 39°34' E 002°38'0 0.0
2017-Jul-21 19:01N 39°34' E 002°38'0 0.0
2017-Jul-21 18:30N 39°34' E 002°38'0 0.0
2017-Jul-21 18:01N 39°34' E 002°38'0 0.0
2017-Jul-21 17:30N 39°34' E 002°38'0 0.7
2017-Jul-21 17:01N 39°34' E 002°38'5 9.0
2017-Jul-21 16:30N 39°30' E 002°42'3 6.4
2017-Jul-21 15:59N 39°27' E 002°44'0 0.0
2017-Jul-21 15:26N 39°27' E 002°44'0 0.0
2017-Jul-21 14:59N 39°27' E 002°44'0 0.0
2017-Jul-21 14:29N 39°27' E 002°44'0 0.0
2017-Jul-21 13:59N 39°27' E 002°44'0 0.0
2017-Jul-21 13:29N 39°27' E 002°44'0 0.0
2017-Jul-21 12:59N 39°27' E 002°44'0 0.0
2017-Jul-21 12:29N 39°27' E 002°44'0 0.0
2017-Jul-21 12:00N 39°27' E 002°44'0 0.0
2017-Jul-21 11:30N 39°27' E 002°44'7 7.9
2017-Jul-21 10:38N 39°33' E 002°39'1 8.0
2017-Jul-21 10:30N 39°33' E 002°38'0 0.7
2017-Jul-21 09:59N 39°34' E 002°38'0 0.0
2017-Jul-21 09:29N 39°34' E 002°38'0 0.0
2017-Jul-21 08:56N 39°34' E 002°38'0 0.0
2017-Jul-21 08:29N 39°34' E 002°38'0 0.0
2017-Jul-21 07:59N 39°34' E 002°38'0 0.0
2017-Jul-21 07:29N 39°34' E 002°38'0 0.0
2017-Jul-21 06:59N 39°34' E 002°38'0 0.0
2017-Jul-21 06:29N 39°34' E 002°38'0 0.0
2017-Jul-21 05:59N 39°34' E 002°38'0 0.0
2017-Jul-21 05:29N 39°34' E 002°38'0 0.0
2017-Jul-21 04:59N 39°34' E 002°38'0 0.0
2017-Jul-21 04:29N 39°34' E 002°38'0 0.0
2017-Jul-21 03:59N 39°34' E 002°38'0 0.0
2017-Jul-21 03:29N 39°34' E 002°38'0 0.0
2017-Jul-21 02:59N 39°34' E 002°38'0 0.0
2017-Jul-21 02:29N 39°34' E 002°38'0 0.0
2017-Jul-21 01:59N 39°34' E 002°38'0 0.0
2017-Jul-21 01:29N 39°34' E 002°38'0 0.0
2017-Jul-21 00:56N 39°34' E 002°38'0 0.0
2017-Jul-21 00:29N 39°34' E 002°38'0 0.0
2017-Jul-20 23:59N 39°34' E 002°38'0 0.0
2017-Jul-20 23:29N 39°34' E 002°38'0 0.0
2017-Jul-20 22:59N 39°34' E 002°38'0 0.0
2017-Jul-20 22:29N 39°34' E 002°38'0 0.0
2017-Jul-20 21:59N 39°34' E 002°38'0 0.0
2017-Jul-20 21:29N 39°34' E 002°38'0 0.0
2017-Jul-20 20:59N 39°34' E 002°38'0 0.0
2017-Jul-20 20:26N 39°34' E 002°38'0 0.0
2017-Jul-20 19:59N 39°34' E 002°38'0 0.0
2017-Jul-20 19:29N 39°34' E 002°38'0 0.0
2017-Jul-20 18:59N 39°34' E 002°38'0 0.0
2017-Jul-20 18:29N 39°34' E 002°38'0 0.0
2017-Jul-20 17:59N 39°34' E 002°38'0 0.0
2017-Jul-20 17:29N 39°34' E 002°38'0 0.0
2017-Jul-20 16:59N 39°34' E 002°38'0 0.0
2017-Jul-20 16:29N 39°34' E 002°38'0 0.0
2017-Jul-20 15:59N 39°34' E 002°38'0 0.0
2017-Jul-20 15:29N 39°34' E 002°38'0 0.0
2017-Jul-20 14:59N 39°34' E 002°38'0 0.0
2017-Jul-20 13:59N 39°34' E 002°38'0 0.0
2017-Jul-20 13:29N 39°34' E 002°38'0 0.0
2017-Jul-20 12:59N 39°34' E 002°38'0 0.0
2017-Jul-20 12:29N 39°34' E 002°38'0 0.0
2017-Jul-20 11:59N 39°34' E 002°38'0 0.0
2017-Jul-20 11:29N 39°34' E 002°38'0 0.0
2017-Jul-20 10:59N 39°34' E 002°38'0 0.0
2017-Jul-20 10:29N 39°34' E 002°38'0 0.0
2017-Jul-20 09:59N 39°34' E 002°38'0 0.0
2017-Jul-20 09:29N 39°34' E 002°38'0 0.0
2017-Jul-20 08:59N 39°34' E 002°38'0 0.0
2017-Jul-20 08:29N 39°34' E 002°38'0 0.0
2017-Jul-20 07:59N 39°34' E 002°38'0 0.0
2017-Jul-20 07:29N 39°34' E 002°38'0 0.0
2017-Jul-20 06:59N 39°34' E 002°38'0 0.0
2017-Jul-20 06:29N 39°34' E 002°38'0 0.0
2017-Jul-20 05:56N 39°34' E 002°38'0 0.0
2017-Jul-20 05:29N 39°34' E 002°38'0 0.0
2017-Jul-20 04:59N 39°34' E 002°38'0 0.0
2017-Jul-20 04:29N 39°34' E 002°38'0 0.0
2017-Jul-20 03:56N 39°34' E 002°38'0 0.0
2017-Jul-20 03:29N 39°34' E 002°38'0 0.0
2017-Jul-20 02:56N 39°34' E 002°38'0 0.0
2017-Jul-20 02:29N 39°34' E 002°38'0 0.0
2017-Jul-20 01:56N 39°34' E 002°38'0 0.0
2017-Jul-20 01:29N 39°34' E 002°38'0 0.0
2017-Jul-20 00:59N 39°34' E 002°38'0 0.0
2017-Jul-20 00:29N 39°34' E 002°38'0 0.0
2017-Jul-19 23:59N 39°34' E 002°38'0 0.0
2017-Jul-19 23:29N 39°34' E 002°38'0 0.0
2017-Jul-19 22:59N 39°34' E 002°38'0 0.0
2017-Jul-19 22:29N 39°34' E 002°38'0 0.0
2017-Jul-19 21:59N 39°34' E 002°38'0 0.0
2017-Jul-19 21:29N 39°34' E 002°38'0 0.0
2017-Jul-19 20:59N 39°34' E 002°38'0 0.0
2017-Jul-19 20:29N 39°34' E 002°38'0 0.0
2017-Jul-19 19:59N 39°34' E 002°38'0 0.0
2017-Jul-19 19:29N 39°34' E 002°38'0 0.0
2017-Jul-19 19:00N 39°34' E 002°38'0 0.3
2017-Jul-19 18:30N 39°34' E 002°38'5 9.8
2017-Jul-19 18:00N 39°30' E 002°34'714.1
2017-Jul-19 17:30N 39°26' E 002°27'713.7
2017-Jul-19 17:00N 39°22' E 002°19'714.2
2017-Jul-19 16:30N 39°17' E 002°13'510.0
2017-Jul-19 16:00N 39°14' E 002°07'5 9.9
2017-Jul-19 15:30N 39°12' E 002°02'5 9.6
2017-Jul-19 15:00N 39°09' E 001°57'5 9.4
2017-Jul-19 14:30N 39°06' E 001°52'5 9.5
2017-Jul-19 14:00N 39°04' E 001°47'6 9.6
2017-Jul-19 13:20N 38°60' E 001°40'4 9.6
2017-Jul-19 12:56N 38°58' E 001°36'5 9.5
2017-Jul-19 12:24N 38°55' E 001°31'5 1.2
2017-Jul-19 08:27N 38°52' E 001°26'11 6.9
2017-Jul-19 06:51N 38°54' E 001°13'2 0.1
2017-Jul-18 18:10N 38°56' E 001°13'210.1
2017-Jul-18 17:56N 38°54' E 001°13'813.1
2017-Jul-18 17:18N 38°48' E 001°21'310.1
2017-Jul-18 16:59N 38°46' E 001°24'1 1.4
2017-Jul-18 16:04N 38°46' E 001°26'8 0.2
2017-Jul-16 18:38N 38°53' E 001°27'510.3
2017-Jul-16 18:08N 38°48' E 001°25'110.5
2017-Jul-16 18:00N 38°47' E 001°25'2 1.6
2017-Jul-16 16:56N 38°46' E 001°26'0 0.0
2017-Jul-16 15:42N 38°46' E 001°26'0 0.0
2017-Jul-16 15:18N 38°46' E 001°26'0 0.0
2017-Jul-16 13:00N 38°46' E 001°26'0 0.0
2017-Jul-16 12:18N 38°46' E 001°26'0 0.0
2017-Jul-16 11:42N 38°46' E 001°26'0 0.0
2017-Jul-16 11:30N 38°46' E 001°26'0 0.0
2017-Jul-16 09:05N 38°46' E 001°26'0 0.7
2017-Jul-16 08:59N 38°46' E 001°26'4 7.4
2017-Jul-16 08:30N 38°48' E 001°22'3 0.3
2017-Jul-15 19:36N 38°46' E 001°26'2 0.3
2017-Jul-15 11:39N 38°48' E 001°25'11 0.3
2017-Jul-13 18:04N 38°54' E 001°12'110.2
2017-Jul-13 18:00N 38°54' E 001°12'5 6.6
2017-Jul-13 17:18N 38°50' E 001°16'  

Dump ship's entire track history